createdAt,value
2022-12-24T00:00:59.283Z,27.62
2022-12-24T00:02:25.054Z,28.08
2022-12-24T00:03:48.559Z,26.62
2022-12-24T00:05:10.491Z,25.84
2022-12-24T00:06:32.183Z,25.18
2022-12-24T00:07:55.505Z,26.27
2022-12-24T00:09:17.796Z,30.08
2022-12-24T00:10:39.165Z,26.26
2022-12-24T00:12:00.862Z,26.02
2022-12-24T00:13:22.236Z,27.24
2022-12-24T00:14:43.734Z,27.32
2022-12-24T00:16:06.044Z,28.06
2022-12-24T00:17:27.271Z,27.37
2022-12-24T00:18:48.778Z,27.47
2022-12-24T00:20:10.956Z,27.95
2022-12-24T00:21:31.948Z,27.72
2022-12-24T00:22:54.900Z,27.15
2022-12-24T00:24:17.312Z,26.68
2022-12-24T00:25:38.969Z,26.48
2022-12-24T00:27:00.649Z,27.06
2022-12-24T00:28:21.981Z,26.08
2022-12-24T00:29:43.390Z,26.34
2022-12-24T00:31:18.725Z,28.05
2022-12-24T00:32:40.376Z,30.50
2022-12-24T00:34:08.673Z,30.21
2022-12-24T00:35:32.904Z,28.57
2022-12-24T00:36:54.396Z,28.17
2022-12-24T00:38:15.996Z,29.54
2022-12-24T00:39:37.478Z,28.93
2022-12-24T00:40:59.865Z,28.18
2022-12-24T00:42:22.367Z,28.66
2022-12-24T00:43:44.006Z,28.55
2022-12-24T00:45:07.130Z,28.17
2022-12-24T00:46:30.441Z,28.53
2022-12-24T00:47:51.785Z,27.91
2022-12-24T00:49:13.229Z,29.72
2022-12-24T00:50:34.807Z,27.93
2022-12-24T00:51:56.951Z,28.88
2022-12-24T00:53:18.876Z,29.94
2022-12-24T00:54:39.857Z,29.75
2022-12-24T00:56:01.221Z,29.16
2022-12-24T00:57:22.549Z,39.46
2022-12-24T00:58:47.706Z,49.58
2022-12-24T01:00:10.503Z,59.74
2022-12-24T01:01:31.868Z,48.61
2022-12-24T01:02:53.160Z,39.59
2022-12-24T01:04:15.638Z,47.03
2022-12-24T01:05:37.039Z,92.34
2022-12-24T01:07:01.709Z,45.01
2022-12-24T01:08:23.255Z,66.10
2022-12-24T01:09:44.190Z,44.22
2022-12-24T01:11:08.281Z,42.07
2022-12-24T01:12:29.528Z,34.22
2022-12-24T01:13:50.608Z,45.08
2022-12-24T01:15:12.863Z,34.40
2022-12-24T01:16:34.202Z,30.42
2022-12-24T01:17:55.940Z,32.64
2022-12-24T01:19:17.447Z,31.12
2022-12-24T01:20:38.969Z,31.68
2022-12-24T01:22:01.199Z,30.63
2022-12-24T01:23:22.268Z,41.60
2022-12-24T01:24:43.700Z,31.04
2022-12-24T01:26:05.353Z,31.29
2022-12-24T01:27:26.599Z,31.26
2022-12-24T01:28:47.759Z,36.71
2022-12-24T01:30:12.430Z,38.89
2022-12-24T01:31:35.404Z,36.17
2022-12-24T01:32:56.880Z,35.49
2022-12-24T01:34:18.032Z,36.84
2022-12-24T01:35:41.904Z,29.30
2022-12-24T01:37:03.426Z,30.98
2022-12-24T01:38:24.837Z,32.46
2022-12-24T01:39:46.191Z,33.16
2022-12-24T01:41:19.511Z,30.01
2022-12-24T01:42:42.407Z,28.12
2022-12-24T01:44:33.132Z,28.17
2022-12-24T01:45:51.178Z,28.93
2022-12-24T01:47:21.351Z,21.07
2022-12-24T01:50:15.578Z,27.62
2022-12-24T01:52:49.053Z,31.96
2022-12-24T01:55:38.770Z,31.61
2022-12-24T01:58:24.614Z,30.04
2022-12-24T01:59:48.332Z,28.63
2022-12-24T02:01:09.573Z,29.26
2022-12-24T02:02:31.371Z,29.65
2022-12-24T02:03:53.016Z,29.72
2022-12-24T02:05:29.194Z,28.46
2022-12-24T02:06:50.493Z,33.94
2022-12-24T02:08:11.810Z,28.53
2022-12-24T02:09:33.634Z,30.42
2022-12-24T02:10:56.896Z,50.67
2022-12-24T02:12:18.201Z,39.95
2022-12-24T02:13:40.073Z,34.60
2022-12-24T02:15:01.846Z,31.11
2022-12-24T02:16:40.119Z,53.34
2022-12-24T02:18:19.960Z,28.39
2022-12-24T02:19:53.615Z,28.71
2022-12-24T02:21:35.371Z,41.50
2022-12-24T02:23:26.075Z,35.00
2022-12-24T02:25:02.237Z,53.64
2022-12-24T02:26:45.309Z,39.45
2022-12-24T02:30:22.973Z,35.09
2022-12-24T02:31:53.649Z,39.83
2022-12-24T02:33:18.776Z,29.83
2022-12-24T02:37:14.343Z,28.18
2022-12-24T02:38:53.742Z,32.31
2022-12-24T02:41:35.594Z,32.18
2022-12-24T02:43:00.125Z,35.89
2022-12-24T02:44:23.337Z,34.71
2022-12-24T02:45:46.762Z,35.02
2022-12-24T02:47:08.388Z,34.28
2022-12-24T02:48:29.493Z,35.18
2022-12-24T02:49:50.944Z,33.92
2022-12-24T02:51:12.499Z,31.72
2022-12-24T02:52:38.790Z,30.80
2022-12-24T02:53:59.877Z,38.48
2022-12-24T02:56:46.927Z,36.32
2022-12-24T02:58:17.947Z,31.30
2022-12-24T02:59:42.761Z,33.57
2022-12-24T03:01:35.067Z,32.31
2022-12-24T03:04:58.367Z,33.09
2022-12-24T03:06:40.143Z,32.68
2022-12-24T03:08:05.058Z,33.42
2022-12-24T03:09:27.713Z,30.64
2022-12-24T03:12:10.835Z,22.62
2022-12-24T03:13:32.179Z,28.96
2022-12-24T03:14:53.799Z,28.00
2022-12-24T03:16:18.425Z,26.69
2022-12-24T03:17:40.095Z,27.29
2022-12-24T03:19:02.693Z,27.18
2022-12-24T03:21:38.974Z,20.38
2022-12-24T03:23:00.210Z,24.17
2022-12-24T03:24:21.530Z,24.75
2022-12-24T03:25:43.576Z,24.24
2022-12-24T03:27:06.821Z,22.77
2022-12-24T03:28:28.154Z,23.42
2022-12-24T03:29:49.232Z,22.78
2022-12-24T03:31:10.764Z,24.41
2022-12-24T03:32:32.782Z,23.43
2022-12-24T03:33:53.890Z,24.28
2022-12-24T03:35:15.377Z,23.10
2022-12-24T03:36:37.027Z,24.21
2022-12-24T03:37:58.322Z,23.66
2022-12-24T03:39:19.813Z,24.34
2022-12-24T03:40:40.896Z,25.09
2022-12-24T03:42:02.457Z,24.51
2022-12-24T03:43:23.735Z,24.40
2022-12-24T03:44:44.990Z,26.25
2022-12-24T03:46:06.804Z,27.78
2022-12-24T03:47:27.798Z,29.26
2022-12-24T03:48:49.167Z,28.48
2022-12-24T03:50:10.642Z,33.69
2022-12-24T03:51:31.911Z,30.59
2022-12-24T03:52:54.298Z,30.14
2022-12-24T03:54:15.365Z,31.49
2022-12-24T03:55:37.718Z,28.39
2022-12-24T03:56:59.136Z,26.85
2022-12-24T03:58:20.551Z,26.30
2022-12-24T03:59:41.947Z,26.43
2022-12-24T04:01:03.330Z,27.78
2022-12-24T04:02:24.886Z,27.50
2022-12-24T04:03:45.957Z,25.71
2022-12-24T04:05:08.175Z,26.81
2022-12-24T04:06:30.589Z,21.07
2022-12-24T04:07:51.507Z,20.03
2022-12-24T04:09:13.435Z,25.84
2022-12-24T04:10:35.025Z,27.31
2022-12-24T04:11:56.075Z,27.50
2022-12-24T04:13:17.043Z,28.57
2022-12-24T04:14:38.491Z,28.12
2022-12-24T04:16:01.267Z,28.77
2022-12-24T04:17:22.512Z,29.36
2022-12-24T04:18:43.920Z,32.51
2022-12-24T04:20:06.368Z,34.58
2022-12-24T04:21:27.554Z,28.13
2022-12-24T04:22:48.877Z,31.23
2022-12-24T04:24:10.262Z,29.17
2022-12-24T04:25:31.183Z,27.79
2022-12-24T04:26:52.831Z,27.81
2022-12-24T04:28:14.369Z,26.44
2022-12-24T04:29:35.427Z,27.27
2022-12-24T04:30:58.448Z,26.67
2022-12-24T04:32:19.739Z,25.88
2022-12-24T04:33:41.094Z,26.18
2022-12-24T04:35:02.373Z,26.60
2022-12-24T04:36:23.988Z,27.98
2022-12-24T04:37:45.032Z,26.23
2022-12-24T04:39:07.390Z,25.72
2022-12-24T04:40:29.070Z,25.68
2022-12-24T04:41:50.192Z,25.64
2022-12-24T04:43:11.170Z,26.15
2022-12-24T04:44:33.005Z,27.77
2022-12-24T04:45:54.136Z,27.66
2022-12-24T04:47:15.595Z,27.64
2022-12-24T04:48:37.414Z,26.51
2022-12-24T04:49:58.783Z,26.98
2022-12-24T04:51:19.899Z,28.42
2022-12-24T04:52:41.286Z,26.52
2022-12-24T04:54:02.794Z,27.01
2022-12-24T04:55:24.507Z,30.01
2022-12-24T04:56:45.932Z,30.51
2022-12-24T04:58:06.979Z,29.76
2022-12-24T04:59:28.040Z,30.18
2022-12-24T05:00:51.027Z,31.29
2022-12-24T05:02:13.741Z,30.29
2022-12-24T05:05:01.473Z,28.92
2022-12-24T05:07:40.018Z,27.67
2022-12-24T05:09:01.612Z,28.27
2022-12-24T05:10:23.891Z,28.13
2022-12-24T05:11:46.565Z,29.27
2022-12-24T05:13:13.315Z,28.78
2022-12-24T05:14:34.959Z,27.26
2022-12-24T05:15:56.360Z,27.91
2022-12-24T05:17:17.710Z,27.29
2022-12-24T05:18:39.132Z,28.57
2022-12-24T05:20:02.991Z,28.61
2022-12-24T05:21:24.464Z,27.54
2022-12-24T05:22:46.777Z,27.74
2022-12-24T05:24:10.648Z,73.71
2022-12-24T05:26:56.065Z,29.21
2022-12-24T05:28:17.483Z,28.88
2022-12-24T05:29:38.915Z,32.32
2022-12-24T05:31:00.831Z,29.19
2022-12-24T05:32:22.224Z,32.59
2022-12-24T05:33:43.913Z,37.15
2022-12-24T05:35:05.534Z,29.27
2022-12-24T05:36:27.086Z,26.43
2022-12-24T05:37:48.175Z,27.00
2022-12-24T05:40:22.689Z,23.01
2022-12-24T05:41:44.626Z,27.39
2022-12-24T05:43:05.749Z,39.06
2022-12-24T05:44:36.556Z,31.58
2022-12-24T05:46:01.672Z,29.02
2022-12-24T05:47:25.426Z,27.27
2022-12-24T05:48:47.123Z,29.72
2022-12-24T05:50:10.472Z,28.75
2022-12-24T05:51:33.220Z,30.54
2022-12-24T05:52:55.722Z,37.90
2022-12-24T05:54:16.860Z,35.53
2022-12-24T05:55:38.172Z,35.31
2022-12-24T05:56:59.938Z,34.63
2022-12-24T05:58:21.330Z,39.08
2022-12-24T05:59:45.849Z,41.37
2022-12-24T06:01:08.105Z,46.68
2022-12-24T06:02:30.289Z,30.03
2022-12-24T06:03:51.655Z,31.54
2022-12-24T06:05:15.612Z,29.57
2022-12-24T06:06:38.674Z,28.36
2022-12-24T06:08:00.081Z,28.94
2022-12-24T06:09:22.019Z,31.01
2022-12-24T06:10:43.721Z,29.33
2022-12-24T06:12:05.581Z,28.19
2022-12-24T06:13:27.000Z,29.55
2022-12-24T06:14:51.498Z,28.37
2022-12-24T06:16:16.172Z,29.49
2022-12-24T06:17:37.559Z,29.08
2022-12-24T06:19:00.484Z,29.59
2022-12-24T06:21:43.071Z,28.18
2022-12-24T06:23:05.796Z,29.95
2022-12-24T06:25:48.362Z,25.95
2022-12-24T06:27:09.488Z,28.33
2022-12-24T06:28:33.162Z,28.70
2022-12-24T06:29:55.381Z,27.71
2022-12-24T06:31:18.004Z,28.07
2022-12-24T06:32:39.163Z,26.78
2022-12-24T06:34:02.244Z,27.32
2022-12-24T06:35:26.649Z,26.67
2022-12-24T06:36:48.199Z,26.97
2022-12-24T06:38:09.254Z,27.04
2022-12-24T06:39:30.900Z,27.08
2022-12-24T06:40:53.215Z,26.44
2022-12-24T06:42:14.973Z,26.69
2022-12-24T06:43:36.372Z,28.45
2022-12-24T06:45:02.279Z,26.90
2022-12-24T06:46:22.146Z,28.65
2022-12-24T06:47:44.739Z,28.01
2022-12-24T06:49:06.574Z,30.11
2022-12-24T06:50:28.141Z,29.08
2022-12-24T06:51:50.851Z,29.08
2022-12-24T06:53:12.682Z,29.39
2022-12-24T06:54:35.951Z,30.02
2022-12-24T06:57:35.206Z,24.41
2022-12-24T06:59:00.176Z,31.49
2022-12-24T07:00:21.137Z,28.84
2022-12-24T07:01:43.667Z,22.61
2022-12-24T07:03:05.336Z,28.88
2022-12-24T07:04:26.629Z,28.39
2022-12-24T07:05:51.138Z,29.07
2022-12-24T07:07:13.332Z,29.36
2022-12-24T07:08:34.661Z,29.40
2022-12-24T07:09:55.853Z,29.31
2022-12-24T07:11:18.595Z,29.50
2022-12-24T07:12:41.664Z,29.79
2022-12-24T07:14:03.063Z,30.63
2022-12-24T07:15:24.618Z,34.82
2022-12-24T07:16:46.436Z,36.53
2022-12-24T07:18:08.019Z,36.56
2022-12-24T07:19:30.032Z,31.11
2022-12-24T07:20:51.645Z,30.88
2022-12-24T07:22:15.750Z,30.29
2022-12-24T07:24:58.495Z,30.79
2022-12-24T07:26:21.772Z,31.91
2022-12-24T07:27:43.339Z,32.90
2022-12-24T07:29:04.801Z,32.88
2022-12-24T07:30:30.215Z,35.03
2022-12-24T07:31:52.253Z,29.88
2022-12-24T07:33:14.209Z,30.79
2022-12-24T07:34:35.443Z,29.97
2022-12-24T07:37:12.804Z,32.39
2022-12-24T07:38:34.330Z,31.40
2022-12-24T07:39:56.047Z,31.43
2022-12-24T07:41:17.051Z,35.20
2022-12-24T07:42:39.856Z,47.58
2022-12-24T07:44:02.594Z,56.44
2022-12-24T07:45:23.984Z,39.73
2022-12-24T07:46:46.254Z,37.26
2022-12-24T07:48:08.928Z,48.85
2022-12-24T07:49:30.739Z,31.61
2022-12-24T07:50:52.242Z,31.01
2022-12-24T07:52:13.862Z,29.92
2022-12-24T07:53:38.167Z,28.81
2022-12-24T07:55:00.758Z,28.08
2022-12-24T07:56:23.031Z,28.92
2022-12-24T07:57:45.919Z,29.56
2022-12-24T07:59:09.262Z,29.97
2022-12-24T08:00:31.609Z,29.52
2022-12-24T08:01:53.278Z,30.82
2022-12-24T08:03:21.058Z,31.76
2022-12-24T08:04:42.813Z,28.51
2022-12-24T08:06:06.280Z,28.59
2022-12-24T08:07:29.557Z,29.10
2022-12-24T08:08:50.915Z,29.99
2022-12-24T08:10:12.790Z,28.29
2022-12-24T08:11:37.227Z,30.60
2022-12-24T08:12:59.365Z,31.58
2022-12-24T08:14:21.049Z,30.75
2022-12-24T08:15:42.490Z,31.57
2022-12-24T08:17:04.707Z,30.08
2022-12-24T08:18:26.229Z,32.06
2022-12-24T08:19:49.170Z,34.28
2022-12-24T08:21:13.468Z,33.37
2022-12-24T08:22:39.102Z,34.99
2022-12-24T08:24:01.621Z,35.24
2022-12-24T08:25:23.079Z,42.94
2022-12-24T08:26:44.656Z,38.93
2022-12-24T08:28:07.261Z,37.86
2022-12-24T08:29:34.081Z,35.72
2022-12-24T08:30:55.718Z,35.73
2022-12-24T08:32:17.812Z,33.23
2022-12-24T08:33:46.818Z,42.92
2022-12-24T08:35:08.394Z,41.17
2022-12-24T08:36:30.639Z,28.40
2022-12-24T08:37:51.891Z,33.64
2022-12-24T08:39:13.340Z,30.43
2022-12-24T08:40:36.367Z,29.31
2022-12-24T08:41:59.515Z,29.82
2022-12-24T08:43:23.949Z,29.01
2022-12-24T08:44:45.355Z,28.69
2022-12-24T08:46:11.781Z,28.68
2022-12-24T08:47:33.234Z,30.17
2022-12-24T08:48:55.015Z,28.37
2022-12-24T08:50:16.607Z,30.61
2022-12-24T08:51:37.680Z,28.61
2022-12-24T08:52:59.218Z,27.86
2022-12-24T08:54:21.512Z,28.24
2022-12-24T08:55:45.842Z,27.20
2022-12-24T08:57:09.581Z,27.41
2022-12-24T08:58:34.641Z,28.18
2022-12-24T09:00:00.642Z,28.13
2022-12-24T09:01:22.980Z,28.33
2022-12-24T09:02:44.506Z,29.10
2022-12-24T09:04:05.651Z,28.31
2022-12-24T09:05:30.566Z,28.57
2022-12-24T09:06:52.279Z,28.83
2022-12-24T09:08:13.440Z,28.08
2022-12-24T09:09:38.093Z,27.80
2022-12-24T09:12:19.793Z,31.46
2022-12-24T09:13:42.253Z,32.21
2022-12-24T09:15:06.108Z,30.50
2022-12-24T09:16:28.140Z,31.34
2022-12-24T09:17:52.622Z,31.24
2022-12-24T09:19:13.904Z,31.33
2022-12-24T09:20:35.281Z,30.82
2022-12-24T09:21:57.297Z,34.48
2022-12-24T09:23:23.333Z,47.67
2022-12-24T09:24:45.980Z,48.30
2022-12-24T09:27:30.181Z,32.38
2022-12-24T09:28:52.086Z,32.88
2022-12-24T09:30:15.648Z,30.45
2022-12-24T09:31:37.125Z,30.64
2022-12-24T09:32:58.838Z,30.71
2022-12-24T09:34:25.167Z,29.93
2022-12-24T09:35:43.472Z,30.48
2022-12-24T09:37:05.024Z,33.67
2022-12-24T09:38:26.601Z,35.79
2022-12-24T09:39:48.057Z,34.01
2022-12-24T09:42:43.899Z,29.02
2022-12-24T09:44:28.357Z,28.47
2022-12-24T09:45:56.494Z,27.80
2022-12-24T09:47:30.828Z,27.32
2022-12-24T09:48:57.212Z,27.76
2022-12-24T09:50:50.307Z,28.27
2022-12-24T09:52:13.315Z,27.51
2022-12-24T09:55:17.707Z,26.50
2022-12-24T09:56:42.055Z,28.33
2022-12-24T09:58:04.071Z,26.92
2022-12-24T09:59:40.668Z,26.88
2022-12-24T10:01:01.992Z,27.53
2022-12-24T10:02:23.280Z,26.31
2022-12-24T10:03:44.672Z,25.47
2022-12-24T10:05:08.255Z,24.71
2022-12-24T10:06:54.035Z,26.27
2022-12-24T10:09:59.988Z,25.77
2022-12-24T10:11:47.780Z,25.94
2022-12-24T10:13:33.594Z,25.14
2022-12-24T10:16:56.641Z,25.60
2022-12-24T10:18:45.572Z,25.86
2022-12-24T10:20:36.520Z,24.90
2022-12-24T10:22:16.755Z,26.08
2022-12-24T10:23:44.860Z,26.01
2022-12-24T10:25:21.384Z,26.65
2022-12-24T10:26:49.759Z,26.45
2022-12-24T10:29:49.858Z,27.31
2022-12-24T10:31:11.322Z,26.31
2022-12-24T10:32:33.653Z,28.76
2022-12-24T10:35:22.282Z,21.42
2022-12-24T10:36:44.163Z,29.80
2022-12-24T10:38:07.155Z,26.63
2022-12-24T10:39:41.355Z,35.63
2022-12-24T10:41:03.867Z,31.47
2022-12-24T10:42:28.830Z,27.28
2022-12-24T10:43:51.038Z,27.89
2022-12-24T10:45:18.557Z,30.13
2022-12-24T10:46:41.026Z,33.71
2022-12-24T10:48:04.279Z,36.19
2022-12-24T10:49:34.803Z,34.86
2022-12-24T10:51:05.009Z,34.48
2022-12-24T10:52:30.483Z,33.46
2022-12-24T10:54:20.880Z,34.89
2022-12-24T10:55:39.567Z,32.59
2022-12-24T10:57:05.244Z,31.35
2022-12-24T10:58:27.404Z,31.53
2022-12-24T10:59:51.920Z,28.59
2022-12-24T11:01:16.309Z,29.49
2022-12-24T11:02:38.330Z,28.38
2022-12-24T11:04:00.435Z,29.43
2022-12-24T11:05:32.713Z,30.04
2022-12-24T11:07:01.481Z,28.66
2022-12-24T11:08:23.993Z,29.33
2022-12-24T11:09:57.247Z,30.54
2022-12-24T11:11:20.593Z,27.43
2022-12-24T11:13:00.619Z,27.89
2022-12-24T11:14:13.775Z,29.36
2022-12-24T11:15:35.578Z,29.25
2022-12-24T11:16:57.198Z,29.13
2022-12-24T11:18:18.431Z,28.63
2022-12-24T11:19:39.640Z,34.47
2022-12-24T11:21:05.076Z,30.48
2022-12-24T11:23:39.646Z,32.73
2022-12-24T11:25:07.435Z,33.64
2022-12-24T11:26:29.990Z,31.78
2022-12-24T11:27:52.081Z,34.27
2022-12-24T11:29:22.122Z,34.84
2022-12-24T11:30:43.599Z,33.65
2022-12-24T11:32:17.178Z,34.23
2022-12-24T11:33:49.457Z,33.69
2022-12-24T11:35:19.135Z,32.37
2022-12-24T11:36:42.503Z,33.19
2022-12-24T11:38:12.092Z,33.24
2022-12-24T11:39:35.279Z,31.62
2022-12-24T11:42:36.574Z,30.42
2022-12-24T11:43:59.814Z,31.57
2022-12-24T11:45:27.988Z,32.26
2022-12-24T11:46:50.718Z,30.43
2022-12-24T11:48:32.292Z,28.22
2022-12-24T11:49:55.084Z,34.15
2022-12-24T11:52:39.119Z,43.04
2022-12-24T11:55:45.196Z,33.88
2022-12-24T11:57:07.253Z,32.84
2022-12-24T11:58:40.221Z,36.07
2022-12-24T12:00:01.676Z,33.11
2022-12-24T12:01:50.979Z,30.63
2022-12-24T12:03:32.203Z,34.46
2022-12-24T12:04:56.838Z,26.83
2022-12-24T12:06:34.585Z,27.31
2022-12-24T12:09:32.801Z,24.61
2022-12-24T12:10:57.241Z,25.43
2022-12-24T12:12:24.203Z,24.82
2022-12-24T12:13:45.480Z,27.11
2022-12-24T12:15:21.514Z,27.97
2022-12-24T12:17:03.875Z,27.13
2022-12-24T12:18:31.101Z,27.51
2022-12-24T12:20:02.061Z,27.78
2022-12-24T12:21:25.918Z,26.54
2022-12-24T12:23:03.217Z,26.45
2022-12-24T12:24:32.348Z,26.44
2022-12-24T12:27:40.802Z,21.06
2022-12-24T12:29:26.977Z,25.89
2022-12-24T12:31:13.804Z,26.39
2022-12-24T12:32:42.921Z,27.41
2022-12-24T12:34:16.107Z,26.63
2022-12-24T12:37:12.764Z,27.58
2022-12-24T12:38:31.933Z,27.87
2022-12-24T12:39:53.656Z,28.41
2022-12-24T12:41:24.931Z,28.82
2022-12-24T12:42:58.625Z,28.22
2022-12-24T12:44:45.035Z,27.51
2022-12-24T12:47:46.175Z,28.21
2022-12-24T12:49:32.932Z,26.24
2022-12-24T12:51:09.173Z,28.42
2022-12-24T12:52:48.248Z,28.13
2022-12-24T12:54:16.353Z,27.47
2022-12-24T12:55:59.143Z,28.14
2022-12-24T12:57:22.397Z,23.82
2022-12-24T13:00:12.826Z,30.63
2022-12-24T13:01:41.899Z,28.19
2022-12-24T13:03:29.295Z,28.86
2022-12-24T13:05:24.224Z,29.17
2022-12-24T13:07:08.114Z,28.29
2022-12-24T13:08:52.603Z,29.57
2022-12-24T13:10:30.246Z,30.40
2022-12-24T13:11:58.389Z,30.44
2022-12-24T13:13:38.390Z,41.81
2022-12-24T13:15:16.142Z,34.83
2022-12-24T13:16:57.849Z,26.13
2022-12-24T13:18:43.302Z,24.78
2022-12-24T13:20:18.876Z,26.41
2022-12-24T13:21:44.286Z,31.76
2022-12-24T13:23:19.351Z,30.21
2022-12-24T13:24:49.690Z,27.90
2022-12-24T13:26:09.656Z,25.66
2022-12-24T13:27:32.146Z,26.69
2022-12-24T13:28:53.635Z,26.26
2022-12-24T13:30:36.477Z,27.23
2022-12-24T13:32:20.791Z,26.61
2022-12-24T13:33:45.995Z,28.23
2022-12-24T13:35:22.835Z,28.59
2022-12-24T13:38:24.255Z,29.28
2022-12-24T13:40:04.520Z,28.62
2022-12-24T13:41:40.028Z,28.63
2022-12-24T13:43:05.655Z,29.36
2022-12-24T13:44:27.305Z,30.64
2022-12-24T13:45:49.738Z,28.21
2022-12-24T13:47:18.963Z,31.68
2022-12-24T13:48:41.620Z,30.97
2022-12-24T13:50:16.966Z,29.55
2022-12-24T13:51:38.006Z,31.56
2022-12-24T13:52:59.989Z,26.86
2022-12-24T13:54:24.952Z,30.73
2022-12-24T13:56:00.828Z,31.14
2022-12-24T13:57:34.969Z,31.93
2022-12-24T14:00:23.661Z,31.21
2022-12-24T14:01:46.612Z,31.50
2022-12-24T14:03:21.231Z,31.87
2022-12-24T14:04:42.956Z,31.98
2022-12-24T14:07:21.248Z,33.03
2022-12-24T14:08:45.152Z,32.72
2022-12-24T14:10:09.270Z,33.81
2022-12-24T14:11:51.775Z,34.18
2022-12-24T14:13:40.042Z,36.53
2022-12-24T14:15:21.725Z,52.52
2022-12-24T14:16:45.393Z,62.26
2022-12-24T14:18:07.194Z,58.67
2022-12-24T14:19:37.386Z,74.51
2022-12-24T14:20:57.068Z,60.28
2022-12-24T14:22:32.891Z,49.49
2022-12-24T14:23:56.597Z,42.96
2022-12-24T14:25:22.399Z,44.59
2022-12-24T14:26:49.443Z,44.83
2022-12-24T14:28:16.000Z,45.57
2022-12-24T14:29:50.153Z,52.49
2022-12-24T14:31:16.651Z,48.85
2022-12-24T14:32:40.075Z,59.19
2022-12-24T14:34:11.942Z,52.55
2022-12-24T14:35:37.309Z,49.43
2022-12-24T14:36:58.984Z,48.99
2022-12-24T14:38:20.591Z,47.73
2022-12-24T14:39:44.141Z,53.06
2022-12-24T14:42:58.096Z,35.59
2022-12-24T14:44:36.031Z,29.18
2022-12-24T14:46:10.431Z,31.46
2022-12-24T14:49:28.519Z,27.55
2022-12-24T14:51:10.566Z,43.72
2022-12-24T14:53:04.199Z,48.34
2022-12-24T14:54:04.772Z,41.73
2022-12-24T14:56:47.301Z,42.48
2022-12-24T14:58:29.009Z,41.86
2022-12-24T14:59:58.732Z,41.19
2022-12-24T15:01:25.719Z,41.92
2022-12-24T15:02:49.188Z,43.24
2022-12-24T15:04:14.118Z,46.54
2022-12-24T15:05:35.298Z,46.03
2022-12-24T15:06:56.907Z,46.25
2022-12-24T15:08:20.687Z,48.87
2022-12-24T15:09:41.683Z,47.53
2022-12-24T15:12:15.435Z,54.28
2022-12-24T15:13:40.415Z,50.83
2022-12-24T15:15:02.625Z,47.52
2022-12-24T15:16:31.686Z,48.69
2022-12-24T15:17:53.039Z,47.96
2022-12-24T15:19:23.099Z,50.47
2022-12-24T15:20:47.701Z,45.82
2022-12-24T15:22:24.449Z,47.36
2022-12-24T15:23:48.286Z,47.35
2022-12-24T15:26:36.880Z,33.07
2022-12-24T15:27:59.671Z,43.90
2022-12-24T15:30:41.025Z,45.79
2022-12-24T15:32:02.537Z,46.13
2022-12-24T15:33:23.882Z,47.68
2022-12-24T15:36:08.592Z,44.17
2022-12-24T15:37:31.370Z,42.09
2022-12-24T15:40:21.510Z,42.36
2022-12-24T15:41:46.821Z,40.55
2022-12-24T15:43:08.195Z,38.39
2022-12-24T15:45:45.160Z,40.47
2022-12-24T15:47:07.770Z,38.64
2022-12-24T15:48:29.517Z,32.46
2022-12-24T15:49:51.030Z,36.70
2022-12-24T15:51:12.187Z,34.52
2022-12-24T15:52:37.386Z,32.49
2022-12-24T15:54:02.224Z,31.98
2022-12-24T15:55:27.583Z,31.16
2022-12-24T15:56:49.085Z,31.02
2022-12-24T15:59:34.561Z,30.11
2022-12-24T16:01:00.807Z,29.58
2022-12-24T16:02:41.869Z,30.26
2022-12-24T16:04:14.082Z,30.13
2022-12-24T16:05:38.905Z,29.53
2022-12-24T16:07:01.779Z,30.88
2022-12-24T16:08:25.375Z,29.25
2022-12-24T16:09:46.594Z,29.61
2022-12-24T16:11:17.064Z,35.83
2022-12-24T16:12:38.545Z,33.37
2022-12-24T16:15:32.583Z,25.32
2022-12-24T16:16:54.682Z,31.71
2022-12-24T16:18:18.011Z,34.39
2022-12-24T16:19:40.564Z,36.35
2022-12-24T16:21:03.394Z,39.84
2022-12-24T16:22:25.930Z,37.68
2022-12-24T16:23:52.945Z,37.73
2022-12-24T16:25:21.645Z,36.62
2022-12-24T16:26:43.240Z,35.09
2022-12-24T16:28:15.124Z,36.53
2022-12-24T16:29:37.145Z,39.48
2022-12-24T16:30:59.933Z,38.88
2022-12-24T16:32:32.506Z,37.46
2022-12-24T16:33:54.995Z,35.88
2022-12-24T16:35:33.885Z,34.97
2022-12-24T16:36:58.212Z,34.36
2022-12-24T16:38:20.949Z,33.68
2022-12-24T16:39:44.262Z,33.24
2022-12-24T16:41:07.917Z,32.83
2022-12-24T16:42:29.254Z,33.88
2022-12-24T16:43:52.598Z,34.72
2022-12-24T16:45:14.203Z,35.37
2022-12-24T16:46:35.666Z,35.67
2022-12-24T16:48:02.105Z,35.44
2022-12-24T16:49:25.157Z,34.64
2022-12-24T16:50:47.417Z,34.19
2022-12-24T16:52:12.527Z,32.51
2022-12-24T16:53:34.060Z,32.20
2022-12-24T16:54:56.030Z,33.98
2022-12-24T16:57:41.621Z,32.03
2022-12-24T17:00:27.793Z,34.27
2022-12-24T17:01:52.978Z,35.65
2022-12-24T17:03:14.550Z,35.38
2022-12-24T17:04:36.213Z,37.20
2022-12-24T17:05:57.323Z,36.39
2022-12-24T17:07:19.449Z,37.52
2022-12-24T17:08:40.839Z,38.17
2022-12-24T17:10:04.414Z,37.78
2022-12-24T17:11:26.594Z,36.37
2022-12-24T17:12:48.283Z,35.20
2022-12-24T17:14:15.028Z,35.05
2022-12-24T17:15:36.542Z,34.39
2022-12-24T17:16:58.954Z,34.84
2022-12-24T17:18:21.292Z,36.15
2022-12-24T17:19:42.974Z,35.66
2022-12-24T17:21:04.542Z,35.24
2022-12-24T17:22:26.070Z,34.75
2022-12-24T17:23:50.606Z,37.16
2022-12-24T17:25:12.570Z,35.36
2022-12-24T17:26:34.996Z,40.64
2022-12-24T17:27:57.742Z,43.37
2022-12-24T17:29:25.860Z,41.66
2022-12-24T17:30:52.278Z,38.74
2022-12-24T17:32:13.335Z,36.57
2022-12-24T17:33:38.415Z,36.62
2022-12-24T17:35:01.420Z,34.53
2022-12-24T17:36:27.511Z,34.33
2022-12-24T17:37:50.049Z,35.89
2022-12-24T17:39:13.282Z,34.68
2022-12-24T17:40:38.996Z,36.21
2022-12-24T17:42:02.637Z,35.87
2022-12-24T17:43:25.147Z,37.19
2022-12-24T17:44:51.088Z,37.43
2022-12-24T17:46:19.049Z,36.69
2022-12-24T17:47:42.093Z,37.18
2022-12-24T17:50:31.509Z,37.94
2022-12-24T17:51:56.141Z,40.04
2022-12-24T17:53:21.809Z,38.36
2022-12-24T17:54:44.091Z,41.54
2022-12-24T17:56:07.567Z,41.21
2022-12-24T17:57:32.048Z,32.64
2022-12-24T17:58:58.930Z,43.34
2022-12-24T18:00:24.002Z,43.87
2022-12-24T18:01:45.660Z,44.01
2022-12-24T18:03:11.842Z,43.13
2022-12-24T18:04:33.127Z,43.31
2022-12-24T18:05:56.621Z,41.81
2022-12-24T18:07:18.470Z,42.12
2022-12-24T18:08:40.945Z,43.09
2022-12-24T18:10:02.007Z,43.22
2022-12-24T18:11:30.907Z,43.59
2022-12-24T18:12:55.152Z,44.19
2022-12-24T18:14:17.273Z,43.68
2022-12-24T18:15:41.493Z,43.85
2022-12-24T18:17:03.066Z,42.93
2022-12-24T18:18:24.556Z,41.87
2022-12-24T18:19:46.027Z,42.67
2022-12-24T18:21:07.525Z,42.53
2022-12-24T18:22:28.964Z,42.29
2022-12-24T18:23:50.995Z,44.48
2022-12-24T18:25:12.609Z,40.29
2022-12-24T18:26:34.515Z,41.56
2022-12-24T18:27:56.793Z,42.78
2022-12-24T18:29:17.971Z,45.47
2022-12-24T18:30:41.054Z,41.69
2022-12-24T18:32:05.784Z,41.43
2022-12-24T18:33:27.882Z,42.03
2022-12-24T18:34:53.652Z,42.78
2022-12-24T18:36:17.629Z,44.53
2022-12-24T18:37:44.766Z,42.44
2022-12-24T18:39:06.217Z,43.07
2022-12-24T18:40:29.983Z,42.86
2022-12-24T18:41:53.288Z,43.08
2022-12-24T18:43:24.514Z,44.08
2022-12-24T18:44:47.177Z,43.09
2022-12-24T18:46:15.722Z,40.90
2022-12-24T18:47:37.287Z,39.88
2022-12-24T18:48:59.395Z,38.11
2022-12-24T18:50:21.219Z,37.89
2022-12-24T18:51:42.951Z,38.57
2022-12-24T18:53:04.426Z,38.20
2022-12-24T18:54:28.673Z,39.29
2022-12-24T18:55:50.005Z,36.21
2022-12-24T18:57:11.162Z,37.98
2022-12-24T18:58:34.451Z,35.99
2022-12-24T19:01:27.920Z,35.89
2022-12-24T19:02:50.864Z,35.86
2022-12-24T19:04:12.520Z,37.54
2022-12-24T19:05:35.425Z,37.63
2022-12-24T19:08:56.008Z,38.70
2022-12-24T19:09:45.052Z,37.94
2022-12-24T19:11:07.589Z,41.87
2022-12-24T19:12:28.993Z,40.54
2022-12-24T19:13:50.537Z,40.62
2022-12-24T19:15:14.211Z,40.65
2022-12-24T19:16:36.177Z,40.87
2022-12-24T19:17:57.738Z,42.92
2022-12-24T19:19:20.034Z,32.14
2022-12-24T19:20:42.002Z,42.14
2022-12-24T19:22:04.408Z,41.81
2022-12-24T19:34:48.591Z,50.68
2022-12-24T19:37:26.174Z,33.78
2022-12-24T19:40:10.083Z,38.20
2022-12-24T19:41:31.424Z,39.03
2022-12-24T19:42:53.981Z,39.99
2022-12-24T19:44:16.081Z,40.16
2022-12-24T19:45:37.429Z,41.36
2022-12-24T19:46:58.985Z,40.07
2022-12-24T19:52:41.620Z,39.36
2022-12-24T19:56:03.695Z,39.56